sensor_id;sensor_type;location;lat;lon;timestamp;P1;durP1;ratioP1;P2;durP2;ratioP2
2850;SDS011;1433;49.976;8.342;2022-08-19T00:00:20;20.60;;;18.57;;
2850;SDS011;1433;49.976;8.342;2022-08-19T00:02:47;19.00;;;17.40;;
2850;SDS011;1433;49.976;8.342;2022-08-19T00:05:13;19.97;;;17.97;;
2850;SDS011;1433;49.976;8.342;2022-08-19T00:07:41;20.33;;;18.30;;
2850;SDS011;1433;49.976;8.342;2022-08-19T00:10:09;21.93;;;19.90;;
2850;SDS011;1433;49.976;8.342;2022-08-19T00:12:36;21.10;;;19.17;;
2850;SDS011;1433;49.976;8.342;2022-08-19T00:15:04;20.50;;;18.60;;
2850;SDS011;1433;49.976;8.342;2022-08-19T00:17:31;20.10;;;18.10;;
2850;SDS011;1433;49.976;8.342;2022-08-19T00:19:58;22.00;;;19.67;;
2850;SDS011;1433;49.976;8.342;2022-08-19T00:22:24;21.83;;;20.00;;
2850;SDS011;1433;49.976;8.342;2022-08-19T00:24:52;19.70;;;17.83;;
2850;SDS011;1433;49.976;8.342;2022-08-19T00:27:18;21.73;;;19.57;;
2850;SDS011;1433;49.976;8.342;2022-08-19T00:29:44;23.40;;;21.20;;
2850;SDS011;1433;49.976;8.342;2022-08-19T00:32:10;23.13;;;21.03;;
2850;SDS011;1433;49.976;8.342;2022-08-19T00:34:37;22.70;;;20.33;;
2850;SDS011;1433;49.976;8.342;2022-08-19T00:37:03;23.40;;;21.07;;
2850;SDS011;1433;49.976;8.342;2022-08-19T00:39:29;22.87;;;20.77;;
2850;SDS011;1433;49.976;8.342;2022-08-19T00:41:56;25.80;;;23.13;;
2850;SDS011;1433;49.976;8.342;2022-08-19T00:44:24;26.37;;;23.67;;
2850;SDS011;1433;49.976;8.342;2022-08-19T00:46:53;27.03;;;24.30;;
2850;SDS011;1433;49.976;8.342;2022-08-19T00:51:59;23.97;;;21.40;;
2850;SDS011;1433;49.976;8.342;2022-08-19T00:54:26;22.53;;;20.23;;
2850;SDS011;1433;49.976;8.342;2022-08-19T00:56:54;23.57;;;21.30;;
2850;SDS011;1433;49.976;8.342;2022-08-19T00:59:20;22.93;;;20.83;;
2850;SDS011;1433;49.976;8.342;2022-08-19T01:01:46;23.13;;;21.13;;
2850;SDS011;1433;49.976;8.342;2022-08-19T01:04:12;24.63;;;22.33;;
2850;SDS011;1433;49.976;8.342;2022-08-19T01:06:39;23.80;;;21.37;;
2850;SDS011;1433;49.976;8.342;2022-08-19T01:09:08;22.17;;;20.07;;
2850;SDS011;1433;49.976;8.342;2022-08-19T01:11:36;22.80;;;20.70;;
2850;SDS011;1433;49.976;8.342;2022-08-19T01:14:05;21.37;;;19.47;;
2850;SDS011;1433;49.976;8.342;2022-08-19T01:16:33;21.17;;;19.10;;
2850;SDS011;1433;49.976;8.342;2022-08-19T01:19:01;22.93;;;20.93;;
2850;SDS011;1433;49.976;8.342;2022-08-19T01:21:37;20.40;;;18.43;;
2850;SDS011;1433;49.976;8.342;2022-08-19T01:24:04;24.53;;;22.30;;
2850;SDS011;1433;49.976;8.342;2022-08-19T01:26:31;20.77;;;18.87;;
2850;SDS011;1433;49.976;8.342;2022-08-19T01:28:57;22.90;;;20.67;;
2850;SDS011;1433;49.976;8.342;2022-08-19T01:31:26;22.57;;;20.47;;
2850;SDS011;1433;49.976;8.342;2022-08-19T01:33:56;22.73;;;20.73;;
2850;SDS011;1433;49.976;8.342;2022-08-19T01:36:26;20.50;;;18.60;;
2850;SDS011;1433;49.976;8.342;2022-08-19T01:38:57;26.10;;;21.03;;
2850;SDS011;1433;49.976;8.342;2022-08-19T01:41:24;23.17;;;20.10;;
2850;SDS011;1433;49.976;8.342;2022-08-19T01:43:51;21.90;;;19.90;;
2850;SDS011;1433;49.976;8.342;2022-08-19T01:46:18;22.40;;;20.37;;
2850;SDS011;1433;49.976;8.342;2022-08-19T01:48:44;20.70;;;18.90;;
2850;SDS011;1433;49.976;8.342;2022-08-19T01:51:12;21.37;;;19.43;;
2850;SDS011;1433;49.976;8.342;2022-08-19T01:53:39;18.83;;;17.23;;
2850;SDS011;1433;49.976;8.342;2022-08-19T01:56:06;20.60;;;18.73;;
2850;SDS011;1433;49.976;8.342;2022-08-19T01:58:35;20.93;;;18.07;;
2850;SDS011;1433;49.976;8.342;2022-08-19T02:01:05;18.73;;;17.03;;
2850;SDS011;1433;49.976;8.342;2022-08-19T02:03:32;20.03;;;18.13;;
2850;SDS011;1433;49.976;8.342;2022-08-19T02:05:58;21.47;;;19.17;;
2850;SDS011;1433;49.976;8.342;2022-08-19T02:08:27;18.60;;;16.90;;
2850;SDS011;1433;49.976;8.342;2022-08-19T02:10:53;18.60;;;16.80;;
2850;SDS011;1433;49.976;8.342;2022-08-19T02:13:19;18.40;;;16.73;;
2850;SDS011;1433;49.976;8.342;2022-08-19T02:15:46;14.17;;;12.97;;
2850;SDS011;1433;49.976;8.342;2022-08-19T02:18:12;17.93;;;16.27;;
2850;SDS011;1433;49.976;8.342;2022-08-19T02:20:40;19.33;;;17.53;;
2850;SDS011;1433;49.976;8.342;2022-08-19T02:23:07;20.50;;;18.53;;
2850;SDS011;1433;49.976;8.342;2022-08-19T02:25:34;18.70;;;16.93;;
2850;SDS011;1433;49.976;8.342;2022-08-19T02:28:00;20.67;;;18.67;;
2850;SDS011;1433;49.976;8.342;2022-08-19T02:30:27;19.50;;;17.90;;
2850;SDS011;1433;49.976;8.342;2022-08-19T02:32:53;19.90;;;18.20;;
2850;SDS011;1433;49.976;8.342;2022-08-19T02:35:20;22.70;;;20.70;;
2850;SDS011;1433;49.976;8.342;2022-08-19T02:37:46;23.13;;;20.90;;
2850;SDS011;1433;49.976;8.342;2022-08-19T02:40:32;20.60;;;18.47;;
2850;SDS011;1433;49.976;8.342;2022-08-19T02:43:00;21.63;;;19.70;;
2850;SDS011;1433;49.976;8.342;2022-08-19T02:45:31;22.70;;;20.50;;
2850;SDS011;1433;49.976;8.342;2022-08-19T02:48:03;22.67;;;20.47;;
2850;SDS011;1433;49.976;8.342;2022-08-19T02:50:31;22.87;;;20.97;;
2850;SDS011;1433;49.976;8.342;2022-08-19T02:52:57;25.10;;;19.73;;
2850;SDS011;1433;49.976;8.342;2022-08-19T02:55:23;20.27;;;18.57;;
2850;SDS011;1433;49.976;8.342;2022-08-19T02:57:49;22.47;;;20.47;;
2850;SDS011;1433;49.976;8.342;2022-08-19T03:00:16;24.27;;;21.77;;
2850;SDS011;1433;49.976;8.342;2022-08-19T03:02:42;22.37;;;20.27;;
2850;SDS011;1433;49.976;8.342;2022-08-19T03:05:08;20.57;;;18.67;;
2850;SDS011;1433;49.976;8.342;2022-08-19T03:07:36;21.90;;;19.60;;
2850;SDS011;1433;49.976;8.342;2022-08-19T03:10:03;20.67;;;18.97;;
2850;SDS011;1433;49.976;8.342;2022-08-19T03:12:30;21.17;;;19.17;;
2850;SDS011;1433;49.976;8.342;2022-08-19T03:14:56;20.90;;;19.10;;
2850;SDS011;1433;49.976;8.342;2022-08-19T03:17:22;22.20;;;19.83;;
2850;SDS011;1433;49.976;8.342;2022-08-19T03:19:48;20.13;;;18.30;;
2850;SDS011;1433;49.976;8.342;2022-08-19T03:22:14;20.10;;;18.30;;
2850;SDS011;1433;49.976;8.342;2022-08-19T03:24:41;19.63;;;17.70;;
2850;SDS011;1433;49.976;8.342;2022-08-19T03:27:07;20.07;;;18.17;;
2850;SDS011;1433;49.976;8.342;2022-08-19T03:29:33;15.57;;;14.27;;
2850;SDS011;1433;49.976;8.342;2022-08-19T03:32:03;19.93;;;18.03;;
2850;SDS011;1433;49.976;8.342;2022-08-19T03:34:30;20.40;;;18.53;;
2850;SDS011;1433;49.976;8.342;2022-08-19T03:36:58;20.37;;;18.57;;
2850;SDS011;1433;49.976;8.342;2022-08-19T03:39:27;20.33;;;18.43;;
2850;SDS011;1433;49.976;8.342;2022-08-19T03:41:53;18.73;;;17.13;;
2850;SDS011;1433;49.976;8.342;2022-08-19T03:44:22;19.97;;;17.97;;
2850;SDS011;1433;49.976;8.342;2022-08-19T03:46:49;18.77;;;17.07;;
2850;SDS011;1433;49.976;8.342;2022-08-19T03:49:21;19.37;;;17.57;;
2850;SDS011;1433;49.976;8.342;2022-08-19T03:51:49;19.63;;;17.93;;
2850;SDS011;1433;49.976;8.342;2022-08-19T03:54:17;19.80;;;18.10;;
2850;SDS011;1433;49.976;8.342;2022-08-19T03:56:45;19.70;;;17.73;;
2850;SDS011;1433;49.976;8.342;2022-08-19T03:59:15;19.40;;;17.80;;
2850;SDS011;1433;49.976;8.342;2022-08-19T04:01:44;19.37;;;17.63;;
2850;SDS011;1433;49.976;8.342;2022-08-19T04:04:10;17.83;;;16.33;;
2850;SDS011;1433;49.976;8.342;2022-08-19T04:06:36;19.47;;;17.57;;
2850;SDS011;1433;49.976;8.342;2022-08-19T04:09:04;20.23;;;18.23;;
2850;SDS011;1433;49.976;8.342;2022-08-19T04:11:34;18.57;;;17.00;;
2850;SDS011;1433;49.976;8.342;2022-08-19T04:14:04;20.33;;;18.37;;
2850;SDS011;1433;49.976;8.342;2022-08-19T04:16:30;21.93;;;18.17;;
2850;SDS011;1433;49.976;8.342;2022-08-19T04:18:58;21.13;;;19.03;;
2850;SDS011;1433;49.976;8.342;2022-08-19T04:21:29;21.47;;;19.30;;
2850;SDS011;1433;49.976;8.342;2022-08-19T04:23:56;22.47;;;20.27;;
2850;SDS011;1433;49.976;8.342;2022-08-19T04:26:24;20.07;;;18.43;;
2850;SDS011;1433;49.976;8.342;2022-08-19T04:28:53;20.60;;;18.93;;
2850;SDS011;1433;49.976;8.342;2022-08-19T04:31:25;21.13;;;18.80;;
2850;SDS011;1433;49.976;8.342;2022-08-19T04:35:08;30.67;;;18.70;;
2850;SDS011;1433;49.976;8.342;2022-08-19T04:37:34;20.60;;;18.90;;
2850;SDS011;1433;49.976;8.342;2022-08-19T04:40:01;20.23;;;18.43;;
2850;SDS011;1433;49.976;8.342;2022-08-19T04:42:47;21.43;;;19.33;;
2850;SDS011;1433;49.976;8.342;2022-08-19T04:45:13;19.57;;;17.97;;
2850;SDS011;1433;49.976;8.342;2022-08-19T04:47:41;19.67;;;17.97;;
2850;SDS011;1433;49.976;8.342;2022-08-19T04:50:09;21.63;;;19.50;;
2850;SDS011;1433;49.976;8.342;2022-08-19T04:52:37;21.07;;;18.93;;
2850;SDS011;1433;49.976;8.342;2022-08-19T04:55:06;21.00;;;19.13;;
2850;SDS011;1433;49.976;8.342;2022-08-19T04:57:32;20.60;;;18.90;;
2850;SDS011;1433;49.976;8.342;2022-08-19T04:59:58;19.90;;;18.30;;
2850;SDS011;1433;49.976;8.342;2022-08-19T05:02:25;22.20;;;20.30;;
2850;SDS011;1433;49.976;8.342;2022-08-19T05:04:57;21.63;;;19.70;;
2850;SDS011;1433;49.976;8.342;2022-08-19T05:07:26;22.07;;;20.03;;
2850;SDS011;1433;49.976;8.342;2022-08-19T05:09:52;19.83;;;17.87;;
2850;SDS011;1433;49.976;8.342;2022-08-19T05:12:19;20.70;;;18.90;;
2850;SDS011;1433;49.976;8.342;2022-08-19T05:14:45;20.07;;;18.37;;
2850;SDS011;1433;49.976;8.342;2022-08-19T05:17:13;19.13;;;17.37;;
2850;SDS011;1433;49.976;8.342;2022-08-19T05:19:39;20.10;;;18.30;;
2850;SDS011;1433;49.976;8.342;2022-08-19T05:22:24;21.30;;;18.60;;
2850;SDS011;1433;49.976;8.342;2022-08-19T05:25:03;21.83;;;19.50;;
2850;SDS011;1433;49.976;8.342;2022-08-19T05:27:31;21.60;;;19.30;;
2850;SDS011;1433;49.976;8.342;2022-08-19T05:29:58;20.27;;;18.47;;
2850;SDS011;1433;49.976;8.342;2022-08-19T05:32:24;19.37;;;17.57;;
2850;SDS011;1433;49.976;8.342;2022-08-19T05:34:51;19.77;;;18.00;;
2850;SDS011;1433;49.976;8.342;2022-08-19T05:37:17;20.90;;;19.00;;
2850;SDS011;1433;49.976;8.342;2022-08-19T05:39:43;19.70;;;17.87;;
2850;SDS011;1433;49.976;8.342;2022-08-19T05:42:10;19.87;;;18.07;;
2850;SDS011;1433;49.976;8.342;2022-08-19T05:44:38;20.20;;;18.17;;
2850;SDS011;1433;49.976;8.342;2022-08-19T05:47:08;21.10;;;19.03;;
2850;SDS011;1433;49.976;8.342;2022-08-19T05:49:35;19.93;;;18.03;;
2850;SDS011;1433;49.976;8.342;2022-08-19T05:52:06;20.80;;;18.90;;
2850;SDS011;1433;49.976;8.342;2022-08-19T05:54:34;21.47;;;18.20;;
2850;SDS011;1433;49.976;8.342;2022-08-19T05:57:03;20.77;;;17.80;;
2850;SDS011;1433;49.976;8.342;2022-08-19T05:59:29;18.70;;;17.00;;
2850;SDS011;1433;49.976;8.342;2022-08-19T06:01:55;22.73;;;18.73;;
2850;SDS011;1433;49.976;8.342;2022-08-19T06:04:22;18.97;;;17.03;;
2850;SDS011;1433;49.976;8.342;2022-08-19T06:06:51;18.60;;;16.90;;
2850;SDS011;1433;49.976;8.342;2022-08-19T06:09:18;19.43;;;17.60;;
2850;SDS011;1433;49.976;8.342;2022-08-19T06:11:52;16.40;;;15.03;;
2850;SDS011;1433;49.976;8.342;2022-08-19T06:14:21;18.97;;;17.27;;
2850;SDS011;1433;49.976;8.342;2022-08-19T06:16:49;17.93;;;16.13;;
2850;SDS011;1433;49.976;8.342;2022-08-19T06:19:19;17.13;;;14.93;;
2850;SDS011;1433;49.976;8.342;2022-08-19T06:21:48;17.93;;;16.43;;
2850;SDS011;1433;49.976;8.342;2022-08-19T06:24:17;20.83;;;18.10;;
2850;SDS011;1433;49.976;8.342;2022-08-19T06:26:47;16.77;;;14.93;;
2850;SDS011;1433;49.976;8.342;2022-08-19T06:29:15;16.33;;;14.93;;
2850;SDS011;1433;49.976;8.342;2022-08-19T06:31:44;17.23;;;15.50;;
2850;SDS011;1433;49.976;8.342;2022-08-19T06:34:11;16.07;;;14.77;;
2850;SDS011;1433;49.976;8.342;2022-08-19T06:36:40;17.17;;;15.57;;
2850;SDS011;1433;49.976;8.342;2022-08-19T06:39:09;16.07;;;14.47;;
2850;SDS011;1433;49.976;8.342;2022-08-19T06:41:46;14.90;;;13.40;;
2850;SDS011;1433;49.976;8.342;2022-08-19T06:44:12;15.67;;;14.23;;
2850;SDS011;1433;49.976;8.342;2022-08-19T06:46:39;15.50;;;13.97;;
2850;SDS011;1433;49.976;8.342;2022-08-19T06:49:07;12.80;;;11.80;;
2850;SDS011;1433;49.976;8.342;2022-08-19T06:51:35;14.40;;;13.20;;
2850;SDS011;1433;49.976;8.342;2022-08-19T06:54:02;19.93;;;14.57;;
2850;SDS011;1433;49.976;8.342;2022-08-19T06:56:29;13.80;;;12.70;;
2850;SDS011;1433;49.976;8.342;2022-08-19T06:59:09;12.53;;;11.43;;
2850;SDS011;1433;49.976;8.342;2022-08-19T07:01:40;13.60;;;12.40;;
2850;SDS011;1433;49.976;8.342;2022-08-19T07:04:05;17.40;;;13.13;;
2850;SDS011;1433;49.976;8.342;2022-08-19T07:06:34;14.33;;;12.90;;
2850;SDS011;1433;49.976;8.342;2022-08-19T07:09:05;12.87;;;11.67;;
2850;SDS011;1433;49.976;8.342;2022-08-19T07:11:32;13.83;;;12.03;;
2850;SDS011;1433;49.976;8.342;2022-08-19T07:13:59;12.10;;;11.00;;
2850;SDS011;1433;49.976;8.342;2022-08-19T07:16:25;12.73;;;11.43;;
2850;SDS011;1433;49.976;8.342;2022-08-19T07:18:53;12.70;;;11.60;;
2850;SDS011;1433;49.976;8.342;2022-08-19T07:21:21;14.10;;;10.60;;
2850;SDS011;1433;49.976;8.342;2022-08-19T07:23:50;14.73;;;11.10;;
2850;SDS011;1433;49.976;8.342;2022-08-19T07:28:47;12.33;;;11.23;;
2850;SDS011;1433;49.976;8.342;2022-08-19T07:31:15;13.27;;;12.07;;
2850;SDS011;1433;49.976;8.342;2022-08-19T07:33:45;12.40;;;11.43;;
2850;SDS011;1433;49.976;8.342;2022-08-19T07:36:14;12.37;;;11.33;;
2850;SDS011;1433;49.976;8.342;2022-08-19T07:38:43;13.70;;;12.23;;
2850;SDS011;1433;49.976;8.342;2022-08-19T07:41:11;13.37;;;12.00;;
2850;SDS011;1433;49.976;8.342;2022-08-19T07:43:39;12.27;;;11.27;;
2850;SDS011;1433;49.976;8.342;2022-08-19T07:46:05;12.60;;;10.87;;
2850;SDS011;1433;49.976;8.342;2022-08-19T07:48:32;12.80;;;11.67;;
2850;SDS011;1433;49.976;8.342;2022-08-19T07:50:59;14.67;;;13.17;;
2850;SDS011;1433;49.976;8.342;2022-08-19T07:53:28;14.83;;;11.40;;
2850;SDS011;1433;49.976;8.342;2022-08-19T07:55:55;12.57;;;11.27;;
2850;SDS011;1433;49.976;8.342;2022-08-19T07:58:23;14.30;;;12.90;;
2850;SDS011;1433;49.976;8.342;2022-08-19T08:00:50;11.93;;;10.83;;
2850;SDS011;1433;49.976;8.342;2022-08-19T08:03:17;13.20;;;12.10;;
2850;SDS011;1433;49.976;8.342;2022-08-19T08:05:45;12.07;;;10.83;;
2850;SDS011;1433;49.976;8.342;2022-08-19T08:08:31;11.37;;;10.37;;
2850;SDS011;1433;49.976;8.342;2022-08-19T08:11:16;16.30;;;13.53;;
2850;SDS011;1433;49.976;8.342;2022-08-19T08:13:45;15.17;;;12.87;;
2850;SDS011;1433;49.976;8.342;2022-08-19T08:16:12;11.57;;;10.67;;
2850;SDS011;1433;49.976;8.342;2022-08-19T08:18:38;12.90;;;11.80;;
2850;SDS011;1433;49.976;8.342;2022-08-19T08:21:06;12.33;;;11.30;;
2850;SDS011;1433;49.976;8.342;2022-08-19T08:23:32;11.33;;;10.23;;
2850;SDS011;1433;49.976;8.342;2022-08-19T08:25:59;14.53;;;13.10;;
2850;SDS011;1433;49.976;8.342;2022-08-19T08:28:27;13.00;;;11.90;;
2850;SDS011;1433;49.976;8.342;2022-08-19T08:30:53;12.50;;;11.43;;
2850;SDS011;1433;49.976;8.342;2022-08-19T08:33:23;12.40;;;11.20;;
2850;SDS011;1433;49.976;8.342;2022-08-19T08:35:50;10.83;;;10.03;;
2850;SDS011;1433;49.976;8.342;2022-08-19T08:38:18;11.00;;;10.07;;
2850;SDS011;1433;49.976;8.342;2022-08-19T08:40:46;10.73;;;9.80;;
2850;SDS011;1433;49.976;8.342;2022-08-19T08:43:29;11.33;;;10.43;;
2850;SDS011;1433;49.976;8.342;2022-08-19T08:46:03;12.87;;;11.67;;
2850;SDS011;1433;49.976;8.342;2022-08-19T08:51:18;11.43;;;10.33;;
2850;SDS011;1433;49.976;8.342;2022-08-19T08:53:50;12.50;;;11.40;;
2850;SDS011;1433;49.976;8.342;2022-08-19T08:56:17;13.07;;;11.83;;
2850;SDS011;1433;49.976;8.342;2022-08-19T08:58:50;12.90;;;11.90;;
2850;SDS011;1433;49.976;8.342;2022-08-19T09:01:34;14.67;;;13.53;;
2850;SDS011;1433;49.976;8.342;2022-08-19T09:04:04;15.07;;;13.67;;
2850;SDS011;1433;49.976;8.342;2022-08-19T09:06:40;14.73;;;13.53;;
2850;SDS011;1433;49.976;8.342;2022-08-19T09:09:23;14.87;;;13.67;;
2850;SDS011;1433;49.976;8.342;2022-08-19T09:11:58;16.70;;;15.13;;
2850;SDS011;1433;49.976;8.342;2022-08-19T09:14:46;16.70;;;15.47;;
2850;SDS011;1433;49.976;8.342;2022-08-19T09:17:17;19.03;;;17.33;;
2850;SDS011;1433;49.976;8.342;2022-08-19T09:22:20;18.47;;;16.97;;
2850;SDS011;1433;49.976;8.342;2022-08-19T09:24:48;19.20;;;17.60;;
2850;SDS011;1433;49.976;8.342;2022-08-19T09:27:16;21.27;;;19.27;;
2850;SDS011;1433;49.976;8.342;2022-08-19T09:29:42;19.23;;;17.67;;
2850;SDS011;1433;49.976;8.342;2022-08-19T09:32:08;18.07;;;16.53;;
2850;SDS011;1433;49.976;8.342;2022-08-19T09:34:34;19.17;;;17.07;;
2850;SDS011;1433;49.976;8.342;2022-08-19T09:37:01;17.60;;;16.00;;
2850;SDS011;1433;49.976;8.342;2022-08-19T09:39:28;15.63;;;14.33;;
2850;SDS011;1433;49.976;8.342;2022-08-19T09:41:56;16.00;;;14.80;;
2850;SDS011;1433;49.976;8.342;2022-08-19T09:44:22;15.70;;;14.40;;
2850;SDS011;1433;49.976;8.342;2022-08-19T09:46:48;16.20;;;14.93;;
2850;SDS011;1433;49.976;8.342;2022-08-19T09:49:17;15.40;;;14.30;;
2850;SDS011;1433;49.976;8.342;2022-08-19T09:51:50;17.53;;;16.13;;
2850;SDS011;1433;49.976;8.342;2022-08-19T09:54:19;16.77;;;15.27;;
2850;SDS011;1433;49.976;8.342;2022-08-19T09:56:45;19.33;;;17.50;;
2850;SDS011;1433;49.976;8.342;2022-08-19T09:59:12;17.13;;;15.60;;
2850;SDS011;1433;49.976;8.342;2022-08-19T10:01:38;19.10;;;17.40;;
2850;SDS011;1433;49.976;8.342;2022-08-19T10:04:05;21.83;;;20.13;;
2850;SDS011;1433;49.976;8.342;2022-08-19T10:06:35;20.73;;;19.03;;
2850;SDS011;1433;49.976;8.342;2022-08-19T10:09:04;19.97;;;18.20;;
2850;SDS011;1433;49.976;8.342;2022-08-19T10:11:32;17.83;;;16.23;;
2850;SDS011;1433;49.976;8.342;2022-08-19T10:13:59;16.60;;;15.30;;
2850;SDS011;1433;49.976;8.342;2022-08-19T10:16:26;15.90;;;14.70;;
2850;SDS011;1433;49.976;8.342;2022-08-19T10:18:52;17.27;;;15.47;;
2850;SDS011;1433;49.976;8.342;2022-08-19T10:21:20;16.20;;;14.80;;
2850;SDS011;1433;49.976;8.342;2022-08-19T10:23:49;21.03;;;18.87;;
2850;SDS011;1433;49.976;8.342;2022-08-19T10:26:23;17.20;;;15.60;;
2850;SDS011;1433;49.976;8.342;2022-08-19T10:28:46;14.10;;;12.80;;
2850;SDS011;1433;49.976;8.342;2022-08-19T10:31:15;13.13;;;11.87;;
2850;SDS011;1433;49.976;8.342;2022-08-19T10:33:43;13.80;;;12.70;;
2850;SDS011;1433;49.976;8.342;2022-08-19T10:36:10;12.27;;;11.37;;
2850;SDS011;1433;49.976;8.342;2022-08-19T10:38:43;13.23;;;12.23;;
2850;SDS011;1433;49.976;8.342;2022-08-19T10:41:13;11.80;;;10.90;;
2850;SDS011;1433;49.976;8.342;2022-08-19T10:43:41;10.90;;;10.00;;
2850;SDS011;1433;49.976;8.342;2022-08-19T10:46:08;12.17;;;11.17;;
2850;SDS011;1433;49.976;8.342;2022-08-19T10:48:36;11.60;;;10.73;;
2850;SDS011;1433;49.976;8.342;2022-08-19T10:51:03;10.30;;;9.40;;
2850;SDS011;1433;49.976;8.342;2022-08-19T10:53:48;8.97;;;8.37;;
2850;SDS011;1433;49.976;8.342;2022-08-19T10:56:15;9.13;;;8.43;;
2850;SDS011;1433;49.976;8.342;2022-08-19T10:59:00;9.40;;;8.60;;
2850;SDS011;1433;49.976;8.342;2022-08-19T11:01:29;9.20;;;8.50;;
2850;SDS011;1433;49.976;8.342;2022-08-19T11:03:56;7.93;;;7.30;;
2850;SDS011;1433;49.976;8.342;2022-08-19T11:06:23;9.00;;;8.17;;
2850;SDS011;1433;49.976;8.342;2022-08-19T11:08:51;11.13;;;10.23;;
2850;SDS011;1433;49.976;8.342;2022-08-19T11:11:18;9.03;;;8.17;;
2850;SDS011;1433;49.976;8.342;2022-08-19T11:13:45;8.23;;;7.53;;
2850;SDS011;1433;49.976;8.342;2022-08-19T11:16:13;7.23;;;6.53;;
2850;SDS011;1433;49.976;8.342;2022-08-19T11:18:43;8.50;;;7.90;;
2850;SDS011;1433;49.976;8.342;2022-08-19T11:21:13;7.30;;;6.80;;
2850;SDS011;1433;49.976;8.342;2022-08-19T11:23:45;8.97;;;8.33;;
2850;SDS011;1433;49.976;8.342;2022-08-19T11:26:13;9.03;;;8.27;;
2850;SDS011;1433;49.976;8.342;2022-08-19T11:28:41;8.43;;;7.73;;
2850;SDS011;1433;49.976;8.342;2022-08-19T11:31:14;8.10;;;7.50;;
2850;SDS011;1433;49.976;8.342;2022-08-19T11:33:42;7.30;;;6.10;;
2850;SDS011;1433;49.976;8.342;2022-08-19T11:36:09;7.40;;;6.80;;
2850;SDS011;1433;49.976;8.342;2022-08-19T11:38:36;6.67;;;6.13;;
2850;SDS011;1433;49.976;8.342;2022-08-19T11:41:04;8.00;;;7.37;;
2850;SDS011;1433;49.976;8.342;2022-08-19T11:43:33;8.00;;;7.40;;
2850;SDS011;1433;49.976;8.342;2022-08-19T11:46:03;6.90;;;6.43;;
2850;SDS011;1433;49.976;8.342;2022-08-19T11:48:32;7.20;;;6.60;;
2850;SDS011;1433;49.976;8.342;2022-08-19T11:51:02;7.40;;;6.80;;
2850;SDS011;1433;49.976;8.342;2022-08-19T11:53:31;7.13;;;6.63;;
2850;SDS011;1433;49.976;8.342;2022-08-19T11:55:58;6.97;;;6.47;;
2850;SDS011;1433;49.976;8.342;2022-08-19T11:58:24;7.07;;;6.57;;
2850;SDS011;1433;49.976;8.342;2022-08-19T12:00:51;6.80;;;6.33;;
2850;SDS011;1433;49.976;8.342;2022-08-19T12:03:18;5.93;;;5.53;;
2850;SDS011;1433;49.976;8.342;2022-08-19T12:05:45;6.40;;;5.90;;
2850;SDS011;1433;49.976;8.342;2022-08-19T12:08:12;6.20;;;5.80;;
2850;SDS011;1433;49.976;8.342;2022-08-19T12:10:39;6.57;;;6.17;;
2850;SDS011;1433;49.976;8.342;2022-08-19T12:13:08;6.13;;;5.73;;
2850;SDS011;1433;49.976;8.342;2022-08-19T12:15:36;7.33;;;6.63;;
2850;SDS011;1433;49.976;8.342;2022-08-19T12:18:04;6.20;;;5.80;;
2850;SDS011;1433;49.976;8.342;2022-08-19T12:20:30;5.93;;;5.53;;
2850;SDS011;1433;49.976;8.342;2022-08-19T12:22:58;5.67;;;5.27;;
2850;SDS011;1433;49.976;8.342;2022-08-19T12:25:25;6.10;;;5.73;;
2850;SDS011;1433;49.976;8.342;2022-08-19T12:27:51;6.40;;;6.00;;
2850;SDS011;1433;49.976;8.342;2022-08-19T12:30:17;5.50;;;5.20;;
2850;SDS011;1433;49.976;8.342;2022-08-19T12:32:44;6.40;;;6.00;;
2850;SDS011;1433;49.976;8.342;2022-08-19T12:35:10;6.60;;;6.10;;
2850;SDS011;1433;49.976;8.342;2022-08-19T12:37:37;6.90;;;6.20;;
2850;SDS011;1433;49.976;8.342;2022-08-19T12:40:05;6.60;;;6.10;;
2850;SDS011;1433;49.976;8.342;2022-08-19T12:42:31;7.33;;;6.83;;
2850;SDS011;1433;49.976;8.342;2022-08-19T12:44:58;6.77;;;6.20;;
2850;SDS011;1433;49.976;8.342;2022-08-19T12:47:24;7.40;;;6.83;;
2850;SDS011;1433;49.976;8.342;2022-08-19T12:49:52;8.13;;;7.37;;
2850;SDS011;1433;49.976;8.342;2022-08-19T12:52:18;6.20;;;5.80;;
2850;SDS011;1433;49.976;8.342;2022-08-19T12:54:46;6.10;;;5.70;;
2850;SDS011;1433;49.976;8.342;2022-08-19T12:57:12;7.60;;;7.00;;
2850;SDS011;1433;49.976;8.342;2022-08-19T12:59:38;7.80;;;7.20;;
2850;SDS011;1433;49.976;8.342;2022-08-19T13:02:05;5.97;;;5.57;;
2850;SDS011;1433;49.976;8.342;2022-08-19T13:04:33;6.40;;;5.80;;
2850;SDS011;1433;49.976;8.342;2022-08-19T13:07:04;6.70;;;6.20;;
2850;SDS011;1433;49.976;8.342;2022-08-19T13:09:30;6.90;;;6.20;;
2850;SDS011;1433;49.976;8.342;2022-08-19T13:11:56;7.87;;;7.27;;
2850;SDS011;1433;49.976;8.342;2022-08-19T13:14:23;6.77;;;6.30;;
2850;SDS011;1433;49.976;8.342;2022-08-19T13:16:49;6.17;;;5.80;;
2850;SDS011;1433;49.976;8.342;2022-08-19T13:19:15;6.20;;;5.70;;
2850;SDS011;1433;49.976;8.342;2022-08-19T13:21:41;6.23;;;5.83;;
2850;SDS011;1433;49.976;8.342;2022-08-19T13:24:07;7.17;;;6.53;;
2850;SDS011;1433;49.976;8.342;2022-08-19T13:26:33;6.20;;;5.77;;
2850;SDS011;1433;49.976;8.342;2022-08-19T13:28:59;7.30;;;6.70;;
2850;SDS011;1433;49.976;8.342;2022-08-19T13:31:44;7.70;;;7.00;;
2850;SDS011;1433;49.976;8.342;2022-08-19T13:34:30;6.10;;;5.70;;
2850;SDS011;1433;49.976;8.342;2022-08-19T13:36:59;5.67;;;5.27;;
2850;SDS011;1433;49.976;8.342;2022-08-19T13:39:29;7.50;;;6.70;;
2850;SDS011;1433;49.976;8.342;2022-08-19T13:41:55;4.83;;;4.43;;
2850;SDS011;1433;49.976;8.342;2022-08-19T13:44:22;5.73;;;5.33;;
2850;SDS011;1433;49.976;8.342;2022-08-19T13:46:48;6.13;;;5.60;;
2850;SDS011;1433;49.976;8.342;2022-08-19T13:49:16;6.33;;;5.80;;
2850;SDS011;1433;49.976;8.342;2022-08-19T13:51:43;5.50;;;5.20;;
2850;SDS011;1433;49.976;8.342;2022-08-19T13:54:10;6.73;;;5.87;;
2850;SDS011;1433;49.976;8.342;2022-08-19T13:56:41;5.67;;;5.27;;
2850;SDS011;1433;49.976;8.342;2022-08-19T13:59:09;4.90;;;4.57;;
2850;SDS011;1433;49.976;8.342;2022-08-19T14:01:36;5.40;;;5.10;;
2850;SDS011;1433;49.976;8.342;2022-08-19T14:04:02;6.40;;;5.77;;
2850;SDS011;1433;49.976;8.342;2022-08-19T14:06:29;9.23;;;8.33;;
2850;SDS011;1433;49.976;8.342;2022-08-19T14:08:57;7.17;;;6.67;;
2850;SDS011;1433;49.976;8.342;2022-08-19T14:11:23;15.13;;;13.80;;
2850;SDS011;1433;49.976;8.342;2022-08-19T14:13:50;11.30;;;10.40;;
2850;SDS011;1433;49.976;8.342;2022-08-19T14:16:17;5.23;;;4.93;;
2850;SDS011;1433;49.976;8.342;2022-08-19T14:18:43;5.77;;;5.47;;
2850;SDS011;1433;49.976;8.342;2022-08-19T14:21:14;6.37;;;5.87;;
2850;SDS011;1433;49.976;8.342;2022-08-19T14:23:42;13.50;;;12.57;;
2850;SDS011;1433;49.976;8.342;2022-08-19T14:26:12;10.33;;;9.63;;
2850;SDS011;1433;49.976;8.342;2022-08-19T14:28:40;11.87;;;10.93;;
2850;SDS011;1433;49.976;8.342;2022-08-19T14:31:08;6.80;;;6.30;;
2850;SDS011;1433;49.976;8.342;2022-08-19T14:33:38;7.93;;;7.33;;
2850;SDS011;1433;49.976;8.342;2022-08-19T14:36:06;7.13;;;6.63;;
2850;SDS011;1433;49.976;8.342;2022-08-19T14:38:32;6.33;;;5.87;;
2850;SDS011;1433;49.976;8.342;2022-08-19T14:41:06;5.53;;;5.23;;
2850;SDS011;1433;49.976;8.342;2022-08-19T14:43:36;6.57;;;5.60;;
2850;SDS011;1433;49.976;8.342;2022-08-19T14:46:04;5.70;;;5.40;;
2850;SDS011;1433;49.976;8.342;2022-08-19T14:48:30;8.07;;;5.50;;
2850;SDS011;1433;49.976;8.342;2022-08-19T14:50:56;7.00;;;6.50;;
2850;SDS011;1433;49.976;8.342;2022-08-19T14:53:22;8.00;;;7.00;;
2850;SDS011;1433;49.976;8.342;2022-08-19T14:55:48;7.07;;;6.60;;
2850;SDS011;1433;49.976;8.342;2022-08-19T14:58:14;7.13;;;6.53;;
2850;SDS011;1433;49.976;8.342;2022-08-19T15:00:41;6.03;;;5.53;;
2850;SDS011;1433;49.976;8.342;2022-08-19T15:03:07;6.43;;;6.03;;
2850;SDS011;1433;49.976;8.342;2022-08-19T15:05:33;8.80;;;6.70;;
2850;SDS011;1433;49.976;8.342;2022-08-19T15:08:04;5.80;;;5.30;;
2850;SDS011;1433;49.976;8.342;2022-08-19T15:10:30;6.80;;;6.20;;
2850;SDS011;1433;49.976;8.342;2022-08-19T15:12:56;5.67;;;5.30;;